Time;durP1;ratioP1;P1;durP2;ratioP2;P2;SDS_P1;SDS_P2;PMS_P1;PMS_P2;Temp;Humidity;BMP_temperature;BMP_pressure;BME280_temperature;BME280_humidity;BME280_pressure;Samples;Min_cycle;Max_cycle;Signal;HPM_P1;HPM_P2
2023/12/09 00:02:11;;;;;;;37.20;19.67;;;;;;;2.63;100.00;100661.84;5093849;28;20052;-41
2023/12/09 00:04:40;;;;;;;41.60;21.55;;;;;;;2.61;100.00;100666.28;5093703;28;20044;-41
2023/12/09 00:07:09;;;;;;;39.42;20.05;;;;;;;2.69;100.00;100664.34;5094235;28;20047;-42
2023/12/09 00:09:38;;;;;;;37.60;19.80;;;;;;;2.74;100.00;100665.13;5095336;28;20044;-40
2023/12/09 00:12:09;;;;;;;40.40;21.33;;;;;;;2.73;100.00;100660.75;5096252;28;20135;-42
2023/12/09 00:14:40;;;;;;;40.33;20.60;;;;;;;2.84;100.00;100658.75;5095088;28;20378;-41
2023/12/09 00:17:10;;;;;;;39.60;20.90;;;;;;;2.77;100.00;100662.41;5093629;28;20052;-44
2023/12/09 00:19:38;;;;;;;38.47;20.90;;;;;;;2.68;100.00;100656.47;5093481;28;20051;-42
2023/12/09 00:22:08;;;;;;;38.83;20.27;;;;;;;2.78;100.00;100656.22;5095410;28;20048;-42
2023/12/09 00:24:36;;;;;;;41.30;20.73;;;;;;;2.73;100.00;100660.75;5095391;28;20135;-40
2023/12/09 00:27:05;;;;;;;40.47;21.48;;;;;;;2.84;100.00;100669.28;5095361;28;20470;-42
2023/12/09 00:29:33;;;;;;;38.95;20.55;;;;;;;2.64;100.00;100660.09;5095163;28;20511;-45
2023/12/09 00:32:02;;;;;;;40.03;20.73;;;;;;;2.55;100.00;100666.41;5094410;28;20048;-42
2023/12/09 00:34:31;;;;;;;38.45;20.60;;;;;;;2.56;100.00;100658.47;5093295;28;20064;-42
2023/12/09 00:37:02;;;;;;;40.50;20.73;;;;;;;2.62;100.00;100657.50;5092392;28;20123;-42
2023/12/09 00:39:31;;;;;;;42.70;21.77;;;;;;;2.52;100.00;100663.84;5092869;28;20051;-40
2023/12/09 00:41:59;;;;;;;40.38;20.85;;;;;;;2.64;100.00;100660.09;5092762;28;20454;-42
2023/12/09 00:44:29;;;;;;;40.10;20.38;;;;;;;2.59;100.00;100661.03;5092691;28;20434;-41
2023/12/09 00:46:57;;;;;;;39.20;21.33;;;;;;;2.50;100.00;100663.84;5092492;28;20105;-42
2023/12/09 00:49:28;;;;;;;39.50;21.50;;;;;;;2.51;100.00;100669.97;5092871;28;20408;-41
2023/12/09 00:51:59;;;;;;;41.58;21.05;;;;;;;2.48;100.00;100676.19;5092791;28;20097;-41
2023/12/09 00:54:29;;;;;;;39.08;21.05;;;;;;;2.33;100.00;100673.88;5092512;28;20135;-41
2023/12/09 00:57:00;;;;;;;42.05;21.30;;;;;;;2.40;100.00;100667.56;5092331;28;20087;-42
2023/12/09 00:59:29;;;;;;;38.33;20.35;;;;;;;2.52;100.00;100674.38;5092389;28;20047;-41
2023/12/09 01:01:57;;;;;;;40.97;22.08;;;;;;;2.22;100.00;100676.72;5092810;28;20054;-42
2023/12/09 01:04:26;;;;;;;42.20;22.17;;;;;;;2.36;100.00;100670.31;5092177;28;20048;-41
2023/12/09 01:06:55;;;;;;;39.17;21.73;;;;;;;2.28;100.00;100670.47;5092567;28;20051;-41
2023/12/09 01:09:24;;;;;;;38.55;21.23;;;;;;;2.28;100.00;100663.44;5092284;28;20084;-41
2023/12/09 01:11:52;;;;;;;40.60;21.48;;;;;;;2.31;100.00;100665.13;5092591;28;20449;-41
2023/12/09 01:14:22;;;;;;;41.10;21.40;;;;;;;2.41;100.00;100668.44;5092677;28;20444;-42
2023/12/09 01:16:50;;;;;;;39.35;20.80;;;;;;;2.46;100.00;100671.84;5092601;28;20135;-41
2023/12/09 01:19:18;;;;;;;38.63;20.95;;;;;;;2.48;100.00;100668.28;5092106;28;20048;-41
2023/12/09 01:21:49;;;;;;;40.78;21.45;;;;;;;2.55;100.00;100667.28;5091619;28;20052;-41
2023/12/09 01:24:19;;;;;;;37.28;20.65;;;;;;;2.69;100.00;100663.47;5091562;28;20135;-42
2023/12/09 01:26:48;;;;;;;39.22;20.27;;;;;;;2.74;100.00;100662.50;5091951;28;20048;-41
2023/12/09 01:29:17;;;;;;;37.90;20.95;;;;;;;2.67;100.00;100665.28;5090846;28;20093;-41
2023/12/09 01:31:45;;;;;;;37.80;20.50;;;;;;;2.64;100.00;100665.34;5091634;28;20079;-40
2023/12/09 01:34:14;;;;;;;39.60;20.08;;;;;;;2.65;100.00;100662.69;5092031;28;20092;-41
2023/12/09 01:36:45;;;;;;;40.55;21.30;;;;;;;2.70;100.00;100660.84;5092109;28;20501;-41
2023/12/09 01:39:17;;;;;;;41.13;21.25;;;;;;;2.72;100.00;100658.16;5092167;28;20080;-40
2023/12/09 01:41:45;;;;;;;37.55;20.45;;;;;;;2.62;100.00;100644.31;5092320;28;20048;-40
2023/12/09 01:44:15;;;;;;;43.20;21.13;;;;;;;2.72;100.00;100655.53;5092160;28;20052;-40
2023/12/09 01:46:43;;;;;;;38.00;20.13;;;;;;;2.72;100.00;100643.22;5092218;28;20521;-41
2023/12/09 01:49:13;;;;;;;41.97;21.35;;;;;;;2.85;100.00;100647.31;5093417;28;20408;-42
2023/12/09 01:51:44;;;;;;;35.72;19.25;;;;;;;2.95;100.00;100649.72;5094107;28;20049;-41
2023/12/09 01:54:13;;;;;;;38.10;19.50;;;;;;;2.76;100.00;100655.41;5097621;28;20071;-40
2023/12/09 01:56:41;;;;;;;38.15;20.85;;;;;;;2.81;100.00;100653.56;5093923;28;20119;-41
2023/12/09 01:59:15;;;;;;;37.65;20.35;;;;;;;2.90;100.00;100651.63;5094162;28;20492;-40
2023/12/09 02:01:45;;;;;;;36.20;20.95;;;;;;;2.98;100.00;100654.94;5095231;28;20123;-41
2023/12/09 02:04:16;;;;;;;39.97;21.23;;;;;;;2.88;100.00;100663.03;5095898;28;20051;-41
2023/12/09 02:06:45;;;;;;;39.97;20.60;;;;;;;2.86;100.00;100659.56;5095823;28;20276;-42
2023/12/09 02:09:14;;;;;;;41.17;21.17;;;;;;;2.92;100.00;100660.34;5095688;28;20048;-41
2023/12/09 02:11:50;;;;;;;39.08;20.38;;;;;;;2.86;100.00;100662.22;5095506;28;20094;-41
2023/12/09 02:14:27;;;;;;;39.25;20.88;;;;;;;2.71;100.00;100659.06;5095086;28;20229;-41
2023/12/09 02:17:04;;;;;;;40.60;21.65;;;;;;;2.57;100.00;100664.59;5095199;28;20055;-40
2023/12/09 02:19:33;;;;;;;41.92;21.40;;;;;;;2.48;100.00;100664.78;5095312;28;20381;-41
2023/12/09 02:22:04;;;;;;;43.47;22.05;;;;;;;2.33;100.00;100660.72;5095676;28;20052;-40
2023/12/09 02:24:35;;;;;;;41.42;21.58;;;;;;;2.23;100.00;100654.78;5095274;28;20048;-42
2023/12/09 02:27:14;;;;;;;42.13;22.17;;;;;;;2.44;100.00;100664.00;5095664;28;20393;-42
2023/12/09 02:29:51;;;;;;;39.28;21.52;;;;;;;2.45;100.00;100655.19;5095475;28;20124;-41
2023/12/09 02:32:24;;;;;;;43.67;21.85;;;;;;;2.51;100.00;100655.09;5095016;28;20523;-40
2023/12/09 02:34:54;;;;;;;40.63;20.88;;;;;;;2.63;100.00;100651.31;5095161;28;20131;-41
2023/12/09 02:37:26;;;;;;;38.30;21.40;;;;;;;2.67;100.00;100652.97;5095052;28;20040;-41
2023/12/09 02:39:57;;;;;;;41.85;21.13;;;;;;;2.54;100.00;100648.88;5094523;28;20052;-41
2023/12/09 02:42:26;;;;;;;38.40;20.70;;;;;;;2.66;100.00;100648.59;5094711;28;20532;-41
2023/12/09 02:44:56;;;;;;;40.90;21.55;;;;;;;2.59;100.00;100655.75;5094750;28;20044;-41
2023/12/09 02:47:25;;;;;;;43.13;21.58;;;;;;;2.65;100.00;100651.28;5094681;28;20507;-41
2023/12/09 02:49:54;;;;;;;40.53;21.45;;;;;;;2.66;100.00;100659.16;5093615;28;20070;-40
2023/12/09 02:52:22;;;;;;;40.58;20.85;;;;;;;2.63;100.00;100661.84;5091082;28;20413;-42
2023/12/09 02:54:50;;;;;;;39.30;21.02;;;;;;;2.70;100.00;100658.19;5074746;28;20067;-41
2023/12/09 02:57:20;;;;;;;38.92;20.70;;;;;;;2.72;100.00;100659.03;5074825;28;20048;-40
2023/12/09 02:59:49;;;;;;;41.38;21.08;;;;;;;2.61;100.00;100653.13;5074852;28;20051;-42
2023/12/09 03:02:19;;;;;;;40.55;21.27;;;;;;;2.74;100.00;100659.00;5106276;28;20048;-41
2023/12/09 03:04:48;;;;;;;43.03;21.00;;;;;;;2.62;100.00;100664.53;5074658;28;20048;-42
2023/12/09 03:07:20;;;;;;;42.63;21.55;;;;;;;2.49;100.00;100666.53;5074462;28;20094;-41
2023/12/09 03:09:48;;;;;;;40.05;22.13;;;;;;;2.40;100.00;100661.44;5074467;28;20135;-41
2023/12/09 03:12:17;;;;;;;42.47;23.25;;;;;;;2.18;100.00;100667.13;5074468;28;20048;-41
2023/12/09 03:14:46;;;;;;;38.10;19.83;;;;;;;2.39;100.00;100672.88;5106712;28;20055;-41
2023/12/09 03:17:15;;;;;;;41.15;21.23;;;;;;;2.45;100.00;100668.38;5072559;28;20083;-41
2023/12/09 03:19:43;;;;;;;39.70;20.75;;;;;;;2.57;100.00;100670.72;5074040;28;20117;-40
2023/12/09 03:22:11;;;;;;;41.53;20.98;;;;;;;2.64;100.00;100666.22;5074046;28;20040;-40
2023/12/09 03:24:42;;;;;;;37.25;20.38;;;;;;;2.60;100.00;100669.78;5073518;28;20483;-41
2023/12/09 03:27:11;;;;;;;41.15;21.73;;;;;;;2.55;100.00;100675.19;5074900;28;20052;-42
2023/12/09 03:29:40;;;;;;;40.28;21.38;;;;;;;2.61;100.00;100665.44;5093867;28;20490;-41
2023/12/09 03:32:13;;;;;;;40.25;21.13;;;;;;;2.44;100.00;100671.91;5094383;28;20047;-41
2023/12/09 03:34:41;;;;;;;42.07;20.90;;;;;;;2.30;100.00;100677.41;5094269;28;20055;-40
2023/12/09 03:37:09;;;;;;;41.85;21.17;;;;;;;2.42;100.00;100681.59;5094106;28;20052;-41
2023/12/09 03:39:37;;;;;;;41.95;21.83;;;;;;;2.42;100.00;100675.47;5094411;28;20058;-42
2023/12/09 03:42:06;;;;;;;40.90;21.63;;;;;;;2.54;100.00;100673.44;5093957;28;20136;-41
2023/12/09 03:44:35;;;;;;;40.17;20.38;;;;;;;2.57;100.00;100667.22;5093210;28;20048;-41
2023/12/09 03:47:03;;;;;;;41.00;21.17;;;;;;;2.55;100.00;100682.22;5093710;28;20047;-43
2023/12/09 03:49:43;;;;;;;40.70;20.73;;;;;;;2.46;100.00;100680.63;5092791;28;20048;-42
2023/12/09 03:52:12;;;;;;;39.95;21.38;;;;;;;2.28;100.00;100676.59;5094176;28;20549;-42
2023/12/09 03:54:44;;;;;;;40.03;21.75;;;;;;;2.09;100.00;100680.47;5093589;28;20044;-40
2023/12/09 03:57:13;;;;;;;41.28;20.88;;;;;;;2.08;100.00;100689.25;5094089;28;20040;-41
2023/12/09 03:59:42;;;;;;;44.10;21.15;;;;;;;2.31;100.00;100683.56;5093791;28;20190;-41
2023/12/09 04:02:10;;;;;;;42.63;21.63;;;;;;;2.43;100.00;100682.47;5093690;28;20162;-40
2023/12/09 04:04:39;;;;;;;41.08;20.30;;;;;;;2.64;100.00;100689.06;5093626;28;20052;-43
2023/12/09 04:07:09;;;;;;;41.85;21.65;;;;;;;2.67;100.00;100689.84;5093265;28;20400;-41
2023/12/09 04:09:38;;;;;;;41.03;21.60;;;;;;;2.42;100.00;100686.00;5093685;28;20048;-41
2023/12/09 04:12:07;;;;;;;36.83;19.85;;;;;;;2.47;100.00;100690.25;5093563;28;20462;-41
2023/12/09 04:14:36;;;;;;;37.33;20.38;;;;;;;2.23;100.00;100691.63;5093523;28;20412;-41
2023/12/09 04:17:07;;;;;;;42.10;21.85;;;;;;;2.35;100.00;100687.00;5093385;28;20044;-40
2023/12/09 04:19:36;;;;;;;43.05;21.80;;;;;;;2.21;100.00;100688.13;5093078;28;20044;-41
2023/12/09 04:22:05;;;;;;;39.63;20.90;;;;;;;2.31;100.00;100678.28;5093057;28;20056;-41
2023/12/09 04:24:34;;;;;;;37.55;20.67;;;;;;;2.35;100.00;100681.75;5091979;28;20464;-41
2023/12/09 04:27:03;;;;;;;43.75;21.40;;;;;;;2.19;100.00;100683.78;5093140;28;20055;-39
2023/12/09 04:29:31;;;;;;;43.95;22.13;;;;;;;2.24;100.00;100688.09;5092951;28;20052;-41
2023/12/09 04:32:01;;;;;;;42.05;21.42;;;;;;;2.25;100.00;100683.69;5091535;28;20083;-42
2023/12/09 04:34:29;;;;;;;44.33;22.40;;;;;;;2.26;100.00;100682.78;5091604;28;20542;-44
2023/12/09 04:36:58;;;;;;;42.60;22.05;;;;;;;2.39;100.00;100686.03;5092995;28;20055;-40
2023/12/09 04:39:27;;;;;;;41.00;21.05;;;;;;;2.40;100.00;100693.03;5092708;28;20055;-39
2023/12/09 04:41:59;;;;;;;40.85;21.52;;;;;;;2.22;100.00;100689.88;5092839;28;20051;-43
2023/12/09 04:44:27;;;;;;;40.97;22.88;;;;;;;2.04;100.00;100684.97;5093152;28;20040;-41
2023/12/09 04:46:56;;;;;;;41.22;22.23;;;;;;;2.19;100.00;100687.28;5092738;28;20508;-41
2023/12/09 04:49:24;;;;;;;42.30;21.30;;;;;;;2.16;100.00;100679.47;5093069;28;20131;-40
2023/12/09 04:51:53;;;;;;;42.97;21.67;;;;;;;2.03;100.00;100683.22;5093706;28;20127;-41
2023/12/09 04:54:21;;;;;;;41.33;21.85;;;;;;;1.97;100.00;100689.47;5093951;28;20044;-42
2023/12/09 04:56:50;;;;;;;40.63;21.45;;;;;;;2.12;100.00;100688.28;5094524;28;20048;-41
2023/12/09 04:59:20;;;;;;;45.03;22.65;;;;;;;2.23;100.00;100696.03;5094982;28;20056;-40
2023/12/09 05:01:48;;;;;;;43.28;21.85;;;;;;;2.26;100.00;100701.22;5094635;28;20044;-41
2023/12/09 05:04:17;;;;;;;41.90;22.45;;;;;;;2.28;100.00;100696.78;5092170;28;20488;-41
2023/12/09 05:06:48;;;;;;;42.90;21.70;;;;;;;2.21;100.00;100695.16;5091963;28;20040;-40
2023/12/09 05:09:22;;;;;;;39.88;21.73;;;;;;;2.25;100.00;100705.63;5092433;28;20058;-41
2023/12/09 05:11:50;;;;;;;43.13;21.60;;;;;;;2.35;100.00;100698.41;5094089;28;20055;-41
2023/12/09 05:14:20;;;;;;;40.13;20.13;;;;;;;2.37;100.00;100696.59;5094248;28;20098;-41
2023/12/09 05:16:48;;;;;;;43.80;21.52;;;;;;;2.45;100.00;100696.47;5095557;28;20481;-45
2023/12/09 05:19:17;;;;;;;39.10;20.83;;;;;;;2.49;100.00;100701.63;5095458;28;20066;-43
2023/12/09 05:21:45;;;;;;;43.38;22.70;;;;;;;2.34;100.00;100698.44;5092206;28;20052;-41
2023/12/09 05:24:13;;;;;;;42.92;22.23;;;;;;;2.31;100.00;100699.34;5091245;28;20044;-42
2023/12/09 05:26:42;;;;;;;45.65;22.33;;;;;;;2.47;100.00;100697.28;5091539;28;20048;-48
2023/12/09 05:29:11;;;;;;;37.78;20.45;;;;;;;2.49;100.00;100699.00;5093239;28;20048;-42
2023/12/09 05:31:41;;;;;;;35.65;19.95;;;;;;;2.58;100.00;100703.22;5095073;28;20448;-43
2023/12/09 05:34:10;;;;;;;39.33;21.00;;;;;;;2.48;100.00;100709.56;5094447;28;20044;-41
2023/12/09 05:36:38;;;;;;;36.35;20.45;;;;;;;2.42;100.00;100707.94;5092945;28;20087;-41
2023/12/09 05:39:07;;;;;;;44.35;21.58;;;;;;;2.30;100.00;100709.00;5091952;28;20487;-40
2023/12/09 05:41:36;;;;;;;40.63;20.90;;;;;;;2.47;100.00;100715.72;5091220;28;20102;-40
2023/12/09 05:44:05;;;;;;;36.67;20.15;;;;;;;2.50;100.00;100710.38;5091636;28;20039;-41
2023/12/09 05:46:37;;;;;;;37.25;20.33;;;;;;;2.44;100.00;100716.66;5091517;28;20154;-42
2023/12/09 05:49:06;;;;;;;38.95;20.00;;;;;;;2.52;100.00;100716.50;5091925;28;20063;-41
2023/12/09 05:51:36;;;;;;;38.45;20.88;;;;;;;2.59;100.00;100712.84;5091442;28;20135;-41
2023/12/09 05:54:04;;;;;;;38.45;20.48;;;;;;;2.40;100.00;100704.44;5091396;28;20044;-47
2023/12/09 05:56:33;;;;;;;41.55;20.83;;;;;;;2.20;100.00;100703.94;5091763;28;20052;-41
2023/12/09 05:59:01;;;;;;;41.97;21.67;;;;;;;2.12;100.00;100700.59;5091595;28;20051;-41
2023/12/09 06:01:33;;;;;;;42.72;21.20;;;;;;;2.29;100.00;100707.28;5091695;28;20055;-41
2023/12/09 06:04:02;;;;;;;40.42;21.35;;;;;;;2.38;100.00;100705.38;5091407;28;20071;-40
2023/12/09 06:06:32;;;;;;;41.90;21.83;;;;;;;2.51;100.00;100702.47;5091421;28;20040;-41
2023/12/09 06:09:01;;;;;;;42.42;21.88;;;;;;;2.50;100.00;100707.75;5092162;28;20051;-41
2023/12/09 06:11:29;;;;;;;41.55;21.27;;;;;;;2.55;100.00;100704.16;5091687;28;20047;-41
2023/12/09 06:13:57;;;;;;;41.80;22.23;;;;;;;2.53;100.00;100710.34;5091597;28;20040;-41
2023/12/09 06:16:26;;;;;;;37.55;20.65;;;;;;;2.53;100.00;100705.06;5091278;28;20044;-41
2023/12/09 06:18:54;;;;;;;36.92;20.77;;;;;;;2.55;100.00;100709.41;5091119;28;20048;-41
2023/12/09 06:21:23;;;;;;;40.03;20.83;;;;;;;2.42;100.00;100712.31;5091533;28;20044;-41
2023/12/09 06:23:53;;;;;;;38.05;21.13;;;;;;;2.43;100.00;100709.66;5091364;28;20044;-42
2023/12/09 06:26:22;;;;;;;40.95;21.23;;;;;;;2.53;100.00;100705.06;5091233;28;20509;-41
2023/12/09 06:28:51;;;;;;;40.25;20.95;;;;;;;2.53;100.00;100710.34;5091333;28;20106;-41
2023/12/09 06:31:19;;;;;;;40.05;21.35;;;;;;;2.44;100.00;100711.41;5091178;28;20048;-42
2023/12/09 06:33:48;;;;;;;39.60;20.35;;;;;;;2.48;100.00;100704.28;5090977;28;20051;-41
2023/12/09 06:36:17;;;;;;;42.13;21.90;;;;;;;2.32;100.00;100711.63;5093000;28;20126;-41
2023/12/09 06:38:46;;;;;;;42.63;22.83;;;;;;;2.16;100.00;100704.91;5095153;28;20484;-44
2023/12/09 06:41:20;;;;;;;43.55;22.88;;;;;;;2.13;100.00;100700.59;5093810;28;20050;-41
2023/12/09 06:43:48;;;;;;;42.23;22.10;;;;;;;2.36;100.00;100707.16;5094840;28;20051;-42
2023/12/09 06:46:19;;;;;;;47.65;23.50;;;;;;;2.29;100.00;100711.69;5094729;28;20277;-43
2023/12/09 06:48:48;;;;;;;46.83;23.10;;;;;;;2.41;100.00;100700.03;5094994;28;20052;-40
2023/12/09 06:51:17;;;;;;;43.90;22.80;;;;;;;2.45;100.00;100714.91;5094973;28;20096;-40
2023/12/09 06:53:46;;;;;;;44.20;22.73;;;;;;;2.28;100.00;100713.44;5094929;28;20385;-40
2023/12/09 06:56:22;;;;;;;43.58;22.30;;;;;;;2.31;100.00;100715.13;5094598;28;20048;-41
2023/12/09 06:58:51;;;;;;;41.08;21.85;;;;;;;2.54;100.00;100723.47;5095021;28;20051;-40
2023/12/09 07:01:21;;;;;;;46.13;22.30;;;;;;;2.66;100.00;100721.50;5094659;28;20090;-42
2023/12/09 07:03:50;;;;;;;42.53;21.77;;;;;;;2.53;100.00;100719.13;5094553;28;20040;-40
2023/12/09 07:06:22;;;;;;;38.38;20.73;;;;;;;2.32;100.00;100716.00;5094803;28;20439;-41
2023/12/09 07:08:51;;;;;;;37.78;19.52;;;;;;;2.51;100.00;100733.19;5094531;28;20556;-41
2023/12/09 07:11:22;;;;;;;39.15;20.58;;;;;;;2.58;100.00;100729.53;5094427;28;20052;-41
2023/12/09 07:13:51;;;;;;;39.55;21.13;;;;;;;2.70;100.00;100729.31;5094603;28;20052;-42
2023/12/09 07:16:21;;;;;;;36.72;20.08;;;;;;;2.59;100.00;100726.00;5094638;28;20070;-42
2023/12/09 07:18:51;;;;;;;40.08;21.67;;;;;;;2.47;100.00;100723.63;5093540;28;20052;-42
2023/12/09 07:21:21;;;;;;;39.30;21.20;;;;;;;2.24;100.00;100730.19;5094089;28;20137;-41
2023/12/09 07:23:50;;;;;;;40.97;22.10;;;;;;;2.12;100.00;100737.44;5094175;28;20127;-41
2023/12/09 07:26:18;;;;;;;40.95;21.67;;;;;;;2.35;100.00;100726.50;5094024;28;20052;-43
2023/12/09 07:28:48;;;;;;;38.13;20.67;;;;;;;2.55;100.00;100732.25;5094376;28;20044;-40
2023/12/09 07:31:17;;;;;;;43.05;21.17;;;;;;;2.56;100.00;100733.97;5085961;28;20146;-41
2023/12/09 07:33:45;;;;;;;44.22;22.17;;;;;;;2.59;100.00;100726.00;5094171;28;20047;-41
2023/12/09 07:36:14;;;;;;;38.40;21.48;;;;;;;2.25;100.00;100726.66;5092592;28;20051;-42
2023/12/09 07:38:42;;;;;;;42.78;21.73;;;;;;;2.36;100.00;100730.88;5094272;28;20101;-40
2023/12/09 07:41:11;;;;;;;42.15;22.33;;;;;;;2.35;100.00;100727.38;5094024;28;20040;-41
2023/12/09 07:43:42;;;;;;;39.33;21.15;;;;;;;2.55;100.00;100734.88;5093871;28;20048;-41
2023/12/09 07:46:11;;;;;;;42.50;22.08;;;;;;;2.58;100.00;100726.91;5093866;28;20131;-41
2023/12/09 07:48:40;;;;;;;43.20;22.45;;;;;;;2.73;100.00;100737.16;5093673;28;20048;-42
2023/12/09 07:51:08;;;;;;;42.70;22.13;;;;;;;2.63;100.00;100740.88;5093615;28;20044;-41
2023/12/09 07:53:40;;;;;;;43.08;22.40;;;;;;;2.61;100.00;100744.44;5094217;28;20078;-40
2023/12/09 07:56:09;;;;;;;39.67;20.40;;;;;;;2.70;100.00;100739.84;5095550;28;20040;-41
2023/12/09 07:58:40;;;;;;;40.03;21.38;;;;;;;2.70;100.00;100734.59;5094608;28;20051;-42
2023/12/09 08:01:11;;;;;;;42.10;22.10;;;;;;;2.46;100.00;100737.69;5094692;28;20062;-42
2023/12/09 08:03:40;;;;;;;40.33;21.98;;;;;;;2.39;100.00;100728.16;5095541;28;20044;-43
2023/12/09 08:06:11;;;;;;;44.58;22.98;;;;;;;2.48;100.00;100733.25;5094166;28;20051;-42
2023/12/09 08:08:40;;;;;;;41.00;22.92;;;;;;;2.28;100.00;100731.88;5093717;28;20040;-41
2023/12/09 08:11:11;;;;;;;43.22;22.65;;;;;;;2.43;100.00;100732.50;5095218;28;21146;-41
2023/12/09 08:13:42;;;;;;;42.95;22.88;;;;;;;2.57;100.00;100735.72;5094813;28;20127;-41
2023/12/09 08:16:13;;;;;;;43.10;21.83;;;;;;;2.68;100.00;100732.84;5093431;28;20710;-42
2023/12/09 08:18:42;;;;;;;44.33;22.25;;;;;;;2.74;100.00;100740.66;5095477;28;20040;-42
2023/12/09 08:21:11;;;;;;;40.78;21.17;;;;;;;2.71;100.00;100743.34;5092752;28;20052;-41
2023/12/09 08:23:41;;;;;;;40.65;21.75;;;;;;;2.76;100.00;100733.56;5093936;28;20127;-40
2023/12/09 08:26:10;;;;;;;41.70;20.90;;;;;;;2.88;100.00;100736.81;5093866;28;20135;-42
2023/12/09 08:28:38;;;;;;;40.20;21.60;;;;;;;2.91;100.00;100729.78;5096072;28;20044;-41
2023/12/09 08:31:06;;;;;;;42.80;22.45;;;;;;;2.76;100.00;100726.53;5095277;28;20489;-40
2023/12/09 08:33:36;;;;;;;43.50;22.63;;;;;;;2.52;100.00;100724.41;5094926;28;20040;-41
2023/12/09 08:36:06;;;;;;;40.08;21.65;;;;;;;2.49;100.00;100720.06;5094774;28;20068;-42
2023/12/09 08:38:34;;;;;;;41.03;22.50;;;;;;;2.39;100.00;100717.63;5093629;28;20044;-43
2023/12/09 08:41:06;;;;;;;45.10;22.90;;;;;;;2.41;100.00;100716.69;5093459;28;20560;-40
2023/12/09 08:43:37;;;;;;;42.80;23.15;;;;;;;2.64;100.00;100724.16;5093093;28;20067;-42
2023/12/09 08:46:05;;;;;;;40.58;21.92;;;;;;;2.82;100.00;100733.47;5092974;28;20362;-41
2023/12/09 08:48:34;;;;;;;46.03;24.20;;;;;;;2.73;100.00;100728.38;5091855;28;20089;-41
2023/12/09 08:51:04;;;;;;;48.38;23.88;;;;;;;2.69;100.00;100717.00;5092855;28;20048;-41
2023/12/09 08:53:33;;;;;;;45.50;23.75;;;;;;;2.90;100.00;100730.66;5092643;28;20058;-40
2023/12/09 08:56:01;;;;;;;46.50;24.50;;;;;;;3.02;100.00;100730.41;5092680;28;20106;-41
2023/12/09 08:58:30;;;;;;;46.83;24.38;;;;;;;3.06;100.00;100732.06;5092137;28;20048;-41
2023/12/09 09:00:58;;;;;;;44.90;24.05;;;;;;;3.09;100.00;100727.59;5093244;28;20048;-40
2023/12/09 09:03:28;;;;;;;43.40;22.58;;;;;;;3.15;100.00;100726.59;5092757;28;20090;-40
2023/12/09 09:05:56;;;;;;;44.72;22.92;;;;;;;3.01;100.00;100732.16;5092688;28;20044;-42
2023/12/09 09:08:29;;;;;;;43.13;21.88;;;;;;;3.13;100.00;100738.94;5092839;28;20385;-42
2023/12/09 09:10:58;;;;;;;40.43;22.47;;;;;;;3.09;100.00;100722.34;5092844;28;20462;-43
2023/12/09 09:13:29;;;;;;;45.13;23.52;;;;;;;3.12;100.00;100716.13;5092260;28;20072;-41
2023/12/09 09:15:58;;;;;;;44.25;23.60;;;;;;;2.98;100.00;100718.19;5092351;28;20085;-42
2023/12/09 09:18:26;;;;;;;47.65;25.10;;;;;;;2.89;100.00;100724.50;5092140;28;20136;-43
2023/12/09 09:20:54;;;;;;;45.33;24.27;;;;;;;2.75;100.00;100721.31;5092348;28;20067;-42
2023/12/09 09:23:23;;;;;;;47.33;24.35;;;;;;;2.94;100.00;100727.06;5091899;28;20508;-42
2023/12/09 09:25:53;;;;;;;46.70;24.23;;;;;;;2.90;100.00;100725.41;5092191;28;20466;-41
2023/12/09 09:28:21;;;;;;;46.17;24.15;;;;;;;2.90;100.00;100726.28;5092182;28;20072;-41
2023/12/09 09:30:50;;;;;;;48.10;24.83;;;;;;;2.85;100.00;100713.19;5091845;28;20044;-41
2023/12/09 09:33:19;;;;;;;46.33;24.05;;;;;;;3.02;100.00;100714.59;5092347;28;20387;-41
2023/12/09 09:35:51;;;;;;;49.25;24.90;;;;;;;2.97;100.00;100705.91;5092383;28;20528;-41
2023/12/09 09:38:19;;;;;;;46.67;24.17;;;;;;;2.98;100.00;100707.63;5092754;28;20055;-41
2023/12/09 09:40:48;;;;;;;44.55;23.90;;;;;;;3.16;100.00;100709.88;5092872;28;20039;-41
2023/12/09 09:43:21;;;;;;;46.65;24.63;;;;;;;3.22;100.00;100712.38;5092000;28;20052;-40
2023/12/09 09:45:53;;;;;;;46.00;24.33;;;;;;;3.31;100.00;100708.66;5089119;28;20041;-40
2023/12/09 09:48:25;;;;;;;49.80;25.33;;;;;;;3.34;100.00;100698.91;5092331;28;20480;-41
2023/12/09 09:50:56;;;;;;;43.70;23.35;;;;;;;3.26;100.00;100700.84;5092290;28;20434;-41
2023/12/09 09:53:33;;;;;;;48.65;24.45;;;;;;;3.26;100.00;100698.19;5091650;28;20135;-42
2023/12/09 09:56:02;;;;;;;45.72;23.90;;;;;;;3.05;100.00;100694.28;5091920;28;20048;-42
2023/12/09 09:58:32;;;;;;;48.45;25.17;;;;;;;2.90;100.00;100699.06;5091649;28;20545;-40
2023/12/09 10:01:04;;;;;;;50.20;25.52;;;;;;;3.10;100.00;100696.84;5091928;28;20109;-41
2023/12/09 10:03:33;;;;;;;53.25;26.95;;;;;;;3.11;100.00;100688.91;5091287;28;20048;-43
2023/12/09 10:06:01;;;;;;;55.47;28.08;;;;;;;3.21;100.00;100686.91;5091902;28;20122;-40
2023/12/09 10:08:30;;;;;;;47.80;24.85;;;;;;;2.94;100.00;100684.91;5091764;28;20079;-41
2023/12/09 10:10:59;;;;;;;52.63;26.27;;;;;;;2.93;100.00;100681.41;5094312;28;20040;-41
2023/12/09 10:13:27;;;;;;;56.78;28.05;;;;;;;3.06;100.00;100674.94;5095897;28;20044;-40
2023/12/09 10:15:57;;;;;;;54.25;27.15;;;;;;;2.99;100.00;100678.63;5096237;28;20048;-40
2023/12/09 10:18:25;;;;;;;52.58;25.70;;;;;;;3.08;100.00;100674.91;5095711;28;20131;-42
2023/12/09 10:20:57;;;;;;;54.42;27.02;;;;;;;3.12;100.00;100669.53;5095834;28;20040;-41
2023/12/09 10:23:26;;;;;;;54.58;27.92;;;;;;;3.14;100.00;100672.13;5094352;28;20097;-40
2023/12/09 10:25:59;;;;;;;56.67;27.63;;;;;;;3.08;100.00;100669.63;5095611;28;20052;-41
2023/12/09 10:28:27;;;;;;;56.43;28.13;;;;;;;2.95;100.00;100665.53;5095722;28;20127;-41
2023/12/09 10:30:58;;;;;;;58.30;28.60;;;;;;;3.03;100.00;100668.88;5095607;28;20048;-41
2023/12/09 10:33:27;;;;;;;61.15;29.98;;;;;;;3.05;100.00;100659.16;5094964;28;20123;-41
2023/12/09 10:35:57;;;;;;;58.75;29.08;;;;;;;2.96;100.00;100662.00;5095445;28;20044;-42
2023/12/09 10:38:26;;;;;;;58.75;28.42;;;;;;;2.76;100.00;100655.41;5095426;28;20464;-41
2023/12/09 10:40:55;;;;;;;66.05;31.13;;;;;;;2.80;100.00;100641.28;5095708;28;20050;-40
2023/12/09 10:43:24;;;;;;;60.53;29.02;;;;;;;2.98;100.00;100639.13;5095264;28;20052;-42
2023/12/09 10:45:58;;;;;;;62.53;29.45;;;;;;;2.95;100.00;100641.81;5095289;28;20546;-42
2023/12/09 10:48:30;;;;;;;63.47;29.73;;;;;;;2.91;100.00;100643.69;5095141;28;20594;-40
2023/12/09 10:50:58;;;;;;;63.10;29.63;;;;;;;2.94;100.00;100637.47;5094869;28;20110;-44
2023/12/09 10:53:27;;;;;;;61.35;29.63;;;;;;;2.84;100.00;100637.66;5094927;28;20132;-41
2023/12/09 10:55:56;;;;;;;66.63;29.92;;;;;;;2.98;100.00;100636.47;5094741;28;20055;-43
2023/12/09 10:58:25;;;;;;;58.28;27.48;;;;;;;3.17;100.00;100632.50;5094537;28;20052;-41
2023/12/09 11:00:54;;;;;;;64.60;30.08;;;;;;;3.16;100.00;100630.78;5094623;28;20385;-40
2023/12/09 11:03:24;;;;;;;65.88;28.92;;;;;;;3.14;100.00;100627.31;5094287;28;20051;-41
2023/12/09 11:05:56;;;;;;;61.30;28.98;;;;;;;3.15;100.00;100615.88;5094471;28;20059;-40
2023/12/09 11:08:30;;;;;;;60.75;29.80;;;;;;;3.25;100.00;100612.09;5094981;28;20109;-41
2023/12/09 11:11:03;;;;;;;64.45;28.70;;;;;;;3.34;100.00;100611.88;5094628;28;20504;-41
2023/12/09 11:13:34;;;;;;;58.67;28.95;;;;;;;3.42;100.00;100598.50;5094217;28;20121;-42
2023/12/09 11:16:10;;;;;;;61.25;29.48;;;;;;;3.43;100.00;100603.75;5094057;28;20067;-41
2023/12/09 11:18:58;;;;;;;60.58;28.15;;;;;;;3.37;100.00;100601.25;5094255;28;20134;-43
2023/12/09 11:21:31;;;;;;;56.75;27.05;;;;;;;3.42;100.00;100604.66;5092794;28;20059;-41